Cheikh El Mokrani — C6WD5 — position and weather

sailwx.info

Track history (hours):
 
Tides and Currents Weather Stations Pressure Air Temp Water Temp Dewpoint Dewpoint Depression Visibility Wind Speed Wind Dir Waves Ship Positions

Cheikh El Mokrani

Last reported at 2014-Nov-24 05:34 UTC. Time now 2014-Nov-24 06:47 UTC.
Position N 37°49' W 009°22'.

Length 220 m; draft 8 m.

Type: Ship (hazmat cat D). MMSI: 309979000.

Date/timePositionNaut miles runAvg speedWind from/ knotsBaromVisibWave heightAir tempDewpointWater temp
2014-Nov-24 05:34N 37°49' W 009°22'1616.2
2014-Nov-24 04:33N 37°53' W 009°02'9 9.1
2014-Nov-24 03:33N 37°56' W 008°52'0 0.2
2014-Nov-24 02:31N 37°56' W 008°51'0 0.0
2014-Nov-24 01:31N 37°56' W 008°51'0 0.0
2014-Nov-24 00:31N 37°56' W 008°51'0 0.0
2014-Nov-23 23:31N 37°56' W 008°51'0 0.0
2014-Nov-23 22:31N 37°56' W 008°51'0 0.0
2014-Nov-23 21:31N 37°56' W 008°51'0 0.0
2014-Nov-23 20:31N 37°56' W 008°51'0 0.0
2014-Nov-23 19:31N 37°56' W 008°51'0 0.0
2014-Nov-23 18:31N 37°56' W 008°51'0 0.0
2014-Nov-23 17:31N 37°56' W 008°51'0 0.0
2014-Nov-23 16:31N 37°56' W 008°51'0 0.0
2014-Nov-23 15:31N 37°56' W 008°51'0 0.0
2014-Nov-23 14:31N 37°56' W 008°51'0 0.0
2014-Nov-23 13:31N 37°56' W 008°51'0 0.0
2014-Nov-23 12:31N 37°56' W 008°51'0 0.0
2014-Nov-23 11:31N 37°56' W 008°51'0 0.0
2014-Nov-23 10:31N 37°56' W 008°51'0 0.0
2014-Nov-23 09:31N 37°56' W 008°51'1 0.7
2014-Nov-23 08:33N 37°57' W 008°52'5 5.0
2014-Nov-23 07:33N 37°52' W 008°55'7 7.3
2014-Nov-23 06:33N 37°45' W 008°59'8 8.4
2014-Nov-23 05:33N 37°38' W 009°03'8 8.3
2014-Nov-23 04:33N 37°30' W 009°08'19 8.4
2014-Nov-23 02:19N 37°13' W 009°18'7 8.7
2014-Nov-23 01:32N 37°07' W 009°22'9 8.6
2014-Nov-23 00:33N 36°60' W 009°27'9 8.6
2014-Nov-22 23:28N 36°51' W 009°23'2110.8
2014-Nov-22 21:30N 36°38' W 009°02'1311.7
2014-Nov-22 20:26N 36°35' W 008°47'1311.9
2014-Nov-22 19:22N 36°31' W 008°32'14913.8
2014-Nov-22 08:32N 35°59' W 005°31'1111.3
2014-Nov-22 07:33N 36°02' W 005°18'19213.7
2014-Nov-21 17:31N 36°07' W 001°21'74 1.7
2014-Nov-19 22:03N 36°37' E 000°03'2513.3
2014-Nov-19 20:10N 37°01' E 000°12'913.9
2014-Nov-19 19:32N 37°09' E 000°15'1413.9
2014-Nov-19 18:34N 37°22' E 000°20'1514.2
2014-Nov-19 17:31N 37°36' E 000°25'7514.3
2014-Nov-19 12:18N 38°48' E 000°51'5113.7
2014-Nov-19 08:33N 39°32' E 001°26'1413.8
2014-Nov-19 07:33N 39°43' E 001°36'1414.4
2014-Nov-19 06:33N 39°55' E 001°48'1514.7
2014-Nov-19 05:33N 40°07' E 001°59'1514.9
2014-Nov-19 04:34N 40°18' E 002°10'1514.8
2014-Nov-19 03:33N 40°30' E 002°22'1414.5
2014-Nov-19 02:34N 40°42' E 002°33'1414.2
2014-Nov-19 01:33N 40°54' E 002°44'1414.4
2014-Nov-19 00:33N 41°05' E 002°56'4914.5
2014-Nov-18 21:10N 41°45' E 003°34'1414.4
2014-Nov-18 20:10N 41°56' E 003°46'1015.2
2014-Nov-18 19:31N 42°04' E 003°54'1915.4
2014-Nov-18 18:16N 42°20' E 004°09'1316.2
2014-Nov-18 17:29N 42°30' E 004°19'1515.5
2014-Nov-18 16:31N 42°42' E 004°31'1515.9
2014-Nov-18 15:34N 42°54' E 004°43'1515.4
2014-Nov-18 14:34N 43°07' E 004°56'1211.8
2014-Nov-18 13:34N 43°18' E 004°59'10 9.6
2014-Nov-18 12:33N 43°26' E 004°52'1 0.7
2014-Nov-18 11:29N 43°27' E 004°51'0 0.0
2014-Nov-18 10:32N 43°27' E 004°51'0 0.0
2014-Nov-18 09:32N 43°27' E 004°51'0 0.0
2014-Nov-18 08:32N 43°27' E 004°51'0 0.0
2014-Nov-18 07:32N 43°27' E 004°51'0 0.0
2014-Nov-18 06:32N 43°27' E 004°51'0 0.0
2014-Nov-18 05:32N 43°27' E 004°51'0 0.0
2014-Nov-18 04:32N 43°27' E 004°51'0 0.0
2014-Nov-18 03:29N 43°27' E 004°51'0 0.0
2014-Nov-18 02:32N 43°27' E 004°51'0 0.0
2014-Nov-18 01:29N 43°27' E 004°51'0 0.0
2014-Nov-18 00:32N 43°27' E 004°51'0 0.0
2014-Nov-17 23:32N 43°27' E 004°51'0 0.0
2014-Nov-17 22:17N 43°27' E 004°51'0 0.0
2014-Nov-17 21:32N 43°27' E 004°51'0 0.0
2014-Nov-17 20:32N 43°27' E 004°51'0 0.0
2014-Nov-17 19:32N 43°27' E 004°51'0 0.0
2014-Nov-17 18:32N 43°27' E 004°51'0 0.0
2014-Nov-17 17:32N 43°27' E 004°51'0 0.0
2014-Nov-17 16:32N 43°27' E 004°51'0 0.0
2014-Nov-17 15:32N 43°27' E 004°51'0 0.0
2014-Nov-17 14:32N 43°27' E 004°51'0 0.0
2014-Nov-17 13:32N 43°27' E 004°51'0 0.0
2014-Nov-17 12:32N 43°27' E 004°51'0 0.0
2014-Nov-17 11:32N 43°27' E 004°51'0 0.0
2014-Nov-17 10:32N 43°27' E 004°51'1 1.0
2014-Nov-17 09:33N 43°26' E 004°52'8 8.1
2014-Nov-17 08:33N 43°20' E 004°59'1010.3
2014-Nov-17 07:33N 43°10' E 005°03'1511.6
2014-Nov-17 06:16N 42°56' E 005°08'1516.2
2014-Nov-17 05:20N 42°41' E 005°13'  
Track history (hours):
 
Tides and Currents Weather Stations Pressure Air Temp Water Temp Dewpoint Dewpoint Depression Visibility Wind Speed Wind Dir Waves Ship Positions

Cheikh El Mokrani

Last reported at 2014-Nov-24 05:34 UTC. Time now 2014-Nov-24 06:47 UTC.
Position N 37°49' W 009°22'.

Length 220 m; draft 8 m.

Type: Ship (hazmat cat D). MMSI: 309979000.

Date/timePositionNaut miles runAvg speedWind from/ knotsBaromVisibWave heightAir tempDewpointWater temp
2014-Nov-24 05:34N 37°49' W 009°22'1616.2
2014-Nov-24 04:33N 37°53' W 009°02'9 9.1
2014-Nov-24 03:33N 37°56' W 008°52'0 0.2
2014-Nov-24 02:31N 37°56' W 008°51'0 0.0
2014-Nov-24 01:31N 37°56' W 008°51'0 0.0
2014-Nov-24 00:31N 37°56' W 008°51'0 0.0
2014-Nov-23 23:31N 37°56' W 008°51'0 0.0
2014-Nov-23 22:31N 37°56' W 008°51'0 0.0
2014-Nov-23 21:31N 37°56' W 008°51'0 0.0
2014-Nov-23 20:31N 37°56' W 008°51'0 0.0
2014-Nov-23 19:31N 37°56' W 008°51'0 0.0
2014-Nov-23 18:31N 37°56' W 008°51'0 0.0
2014-Nov-23 17:31N 37°56' W 008°51'0 0.0
2014-Nov-23 16:31N 37°56' W 008°51'0 0.0
2014-Nov-23 15:31N 37°56' W 008°51'0 0.0
2014-Nov-23 14:31N 37°56' W 008°51'0 0.0
2014-Nov-23 13:31N 37°56' W 008°51'0 0.0
2014-Nov-23 12:31N 37°56' W 008°51'0 0.0
2014-Nov-23 11:31N 37°56' W 008°51'0 0.0
2014-Nov-23 10:31N 37°56' W 008°51'0 0.0
2014-Nov-23 09:31N 37°56' W 008°51'1 0.7
2014-Nov-23 08:33N 37°57' W 008°52'5 5.0
2014-Nov-23 07:33N 37°52' W 008°55'7 7.3
2014-Nov-23 06:33N 37°45' W 008°59'8 8.4
2014-Nov-23 05:33N 37°38' W 009°03'8 8.3
2014-Nov-23 04:33N 37°30' W 009°08'19 8.4
2014-Nov-23 02:19N 37°13' W 009°18'7 8.7
2014-Nov-23 01:32N 37°07' W 009°22'9 8.6
2014-Nov-23 00:33N 36°60' W 009°27'9 8.6
2014-Nov-22 23:28N 36°51' W 009°23'2110.8
2014-Nov-22 21:30N 36°38' W 009°02'1311.7
2014-Nov-22 20:26N 36°35' W 008°47'1311.9
2014-Nov-22 19:22N 36°31' W 008°32'14913.8
2014-Nov-22 08:32N 35°59' W 005°31'1111.3
2014-Nov-22 07:33N 36°02' W 005°18'19213.7
2014-Nov-21 17:31N 36°07' W 001°21'74 1.7
2014-Nov-19 22:03N 36°37' E 000°03'2513.3
2014-Nov-19 20:10N 37°01' E 000°12'913.9
2014-Nov-19 19:32N 37°09' E 000°15'1413.9
2014-Nov-19 18:34N 37°22' E 000°20'1514.2
2014-Nov-19 17:31N 37°36' E 000°25'7514.3
2014-Nov-19 12:18N 38°48' E 000°51'5113.7
2014-Nov-19 08:33N 39°32' E 001°26'1413.8
2014-Nov-19 07:33N 39°43' E 001°36'1414.4
2014-Nov-19 06:33N 39°55' E 001°48'1514.7
2014-Nov-19 05:33N 40°07' E 001°59'1514.9
2014-Nov-19 04:34N 40°18' E 002°10'1514.8
2014-Nov-19 03:33N 40°30' E 002°22'1414.5
2014-Nov-19 02:34N 40°42' E 002°33'1414.2
2014-Nov-19 01:33N 40°54' E 002°44'1414.4
2014-Nov-19 00:33N 41°05' E 002°56'4914.5
2014-Nov-18 21:10N 41°45' E 003°34'1414.4
2014-Nov-18 20:10N 41°56' E 003°46'1015.2
2014-Nov-18 19:31N 42°04' E 003°54'1915.4
2014-Nov-18 18:16N 42°20' E 004°09'1316.2
2014-Nov-18 17:29N 42°30' E 004°19'1515.5
2014-Nov-18 16:31N 42°42' E 004°31'1515.9
2014-Nov-18 15:34N 42°54' E 004°43'1515.4
2014-Nov-18 14:34N 43°07' E 004°56'1211.8
2014-Nov-18 13:34N 43°18' E 004°59'10 9.6
2014-Nov-18 12:33N 43°26' E 004°52'1 0.7
2014-Nov-18 11:29N 43°27' E 004°51'0 0.0
2014-Nov-18 10:32N 43°27' E 004°51'0 0.0
2014-Nov-18 09:32N 43°27' E 004°51'0 0.0
2014-Nov-18 08:32N 43°27' E 004°51'0 0.0
2014-Nov-18 07:32N 43°27' E 004°51'0 0.0
2014-Nov-18 06:32N 43°27' E 004°51'0 0.0
2014-Nov-18 05:32N 43°27' E 004°51'0 0.0
2014-Nov-18 04:32N 43°27' E 004°51'0 0.0
2014-Nov-18 03:29N 43°27' E 004°51'0 0.0
2014-Nov-18 02:32N 43°27' E 004°51'0 0.0
2014-Nov-18 01:29N 43°27' E 004°51'0 0.0
2014-Nov-18 00:32N 43°27' E 004°51'0 0.0
2014-Nov-17 23:32N 43°27' E 004°51'0 0.0
2014-Nov-17 22:17N 43°27' E 004°51'0 0.0
2014-Nov-17 21:32N 43°27' E 004°51'0 0.0
2014-Nov-17 20:32N 43°27' E 004°51'0 0.0
2014-Nov-17 19:32N 43°27' E 004°51'0 0.0
2014-Nov-17 18:32N 43°27' E 004°51'0 0.0
2014-Nov-17 17:32N 43°27' E 004°51'0 0.0
2014-Nov-17 16:32N 43°27' E 004°51'0 0.0
2014-Nov-17 15:32N 43°27' E 004°51'0 0.0
2014-Nov-17 14:32N 43°27' E 004°51'0 0.0
2014-Nov-17 13:32N 43°27' E 004°51'0 0.0
2014-Nov-17 12:32N 43°27' E 004°51'0 0.0
2014-Nov-17 11:32N 43°27' E 004°51'0 0.0
2014-Nov-17 10:32N 43°27' E 004°51'1 1.0
2014-Nov-17 09:33N 43°26' E 004°52'8 8.1
2014-Nov-17 08:33N 43°20' E 004°59'1010.3
2014-Nov-17 07:33N 43°10' E 005°03'1511.6
2014-Nov-17 06:16N 42°56' E 005°08'1516.2
2014-Nov-17 05:20N 42°41' E 005°13'  

Dump ship's entire track history